sensor_id;sensor_type;location;lat;lon;timestamp;pressure;altitude;pressure_sealevel;temperature;humidity
3082;BME280;1551;51.046;7.010;2023-02-10T00:01:45;102857.63;;;4.64;nan
3082;BME280;1551;51.046;7.010;2023-02-10T00:04:34;102856.91;;;4.66;nan
3082;BME280;1551;51.046;7.010;2023-02-10T00:07:23;102862.25;;;4.72;nan
3082;BME280;1551;51.046;7.010;2023-02-10T00:10:12;102871.75;;;4.76;nan
3082;BME280;1551;51.046;7.010;2023-02-10T00:13:01;102867.53;;;4.77;nan
3082;BME280;1551;51.046;7.010;2023-02-10T00:15:50;102875.88;;;4.74;nan
3082;BME280;1551;51.046;7.010;2023-02-10T00:18:39;102869.38;;;4.79;nan
3082;BME280;1551;51.046;7.010;2023-02-10T00:21:28;102860.97;;;4.80;nan
3082;BME280;1551;51.046;7.010;2023-02-10T00:24:18;102862.34;;;4.92;nan
3082;BME280;1551;51.046;7.010;2023-02-10T00:27:08;102870.03;;;4.93;nan
3082;BME280;1551;51.046;7.010;2023-02-10T00:29:56;102868.22;;;4.91;nan
3082;BME280;1551;51.046;7.010;2023-02-10T00:32:45;102868.41;;;4.95;nan
3082;BME280;1551;51.046;7.010;2023-02-10T00:35:36;102870.97;;;4.95;nan
3082;BME280;1551;51.046;7.010;2023-02-10T00:38:26;102875.53;;;4.84;nan
3082;BME280;1551;51.046;7.010;2023-02-10T00:41:16;102882.53;;;4.90;nan
3082;BME280;1551;51.046;7.010;2023-02-10T00:44:06;102875.91;;;4.92;nan
3082;BME280;1551;51.046;7.010;2023-02-10T00:46:55;102884.03;;;5.03;nan
3082;BME280;1551;51.046;7.010;2023-02-10T00:49:44;102877.28;;;5.03;nan
3082;BME280;1551;51.046;7.010;2023-02-10T00:52:33;102885.84;;;5.05;nan
3082;BME280;1551;51.046;7.010;2023-02-10T00:55:22;102885.13;;;5.08;nan
3082;BME280;1551;51.046;7.010;2023-02-10T00:58:11;102884.03;;;5.03;nan
3082;BME280;1551;51.046;7.010;2023-02-10T01:01:00;102877.22;;;5.02;nan
3082;BME280;1551;51.046;7.010;2023-02-10T01:03:49;102876.84;;;4.94;nan
3082;BME280;1551;51.046;7.010;2023-02-10T01:06:38;102874.00;;;4.88;nan
3082;BME280;1551;51.046;7.010;2023-02-10T01:09:27;102883.44;;;4.91;nan
3082;BME280;1551;51.046;7.010;2023-02-10T01:12:16;102890.25;;;4.92;nan
3082;BME280;1551;51.046;7.010;2023-02-10T01:15:06;102888.38;;;4.88;nan
3082;BME280;1551;51.046;7.010;2023-02-10T01:17:56;102894.91;;;4.82;nan
3082;BME280;1551;51.046;7.010;2023-02-10T01:20:46;102896.13;;;4.91;nan
3082;BME280;1551;51.046;7.010;2023-02-10T01:23:35;102884.38;;;4.93;nan
3082;BME280;1551;51.046;7.010;2023-02-10T01:26:24;102893.38;;;5.04;nan
3082;BME280;1551;51.046;7.010;2023-02-10T01:29:14;102903.22;;;4.98;nan
3082;BME280;1551;51.046;7.010;2023-02-10T01:32:03;102902.72;;;5.05;nan
3082;BME280;1551;51.046;7.010;2023-02-10T01:34:52;102908.53;;;5.02;nan
3082;BME280;1551;51.046;7.010;2023-02-10T01:37:40;102901.78;;;5.03;nan
3082;BME280;1551;51.046;7.010;2023-02-10T01:40:29;102900.13;;;5.03;nan
3082;BME280;1551;51.046;7.010;2023-02-10T01:43:19;102907.06;;;4.90;nan
3082;BME280;1551;51.046;7.010;2023-02-10T01:46:08;102909.84;;;4.94;nan
3082;BME280;1551;51.046;7.010;2023-02-10T01:49:00;102912.44;;;4.96;nan
3082;BME280;1551;51.046;7.010;2023-02-10T01:51:55;102905.47;;;4.92;nan
3082;BME280;1551;51.046;7.010;2023-02-10T01:54:50;102914.09;;;4.95;nan
3082;BME280;1551;51.046;7.010;2023-02-10T01:57:42;102894.41;;;4.90;nan
3082;BME280;1551;51.046;7.010;2023-02-10T02:00:32;102912.75;;;5.02;nan
3082;BME280;1551;51.046;7.010;2023-02-10T02:03:21;102921.22;;;5.02;nan
3082;BME280;1551;51.046;7.010;2023-02-10T02:06:10;102917.31;;;5.09;nan
3082;BME280;1551;51.046;7.010;2023-02-10T02:08:59;102923.84;;;5.04;nan
3082;BME280;1551;51.046;7.010;2023-02-10T02:12:02;102922.19;;;4.88;nan
3082;BME280;1551;51.046;7.010;2023-02-10T02:15:21;102928.53;;;4.96;nan
3082;BME280;1551;51.046;7.010;2023-02-10T02:18:32;102926.50;;;5.07;nan
3082;BME280;1551;51.046;7.010;2023-02-10T02:21:39;102921.53;;;5.08;nan
3082;BME280;1551;51.046;7.010;2023-02-10T02:28:24;102926.81;;;5.13;nan
3082;BME280;1551;51.046;7.010;2023-02-10T02:37:29;102928.25;;;5.08;nan
3082;BME280;1551;51.046;7.010;2023-02-10T02:40:19;102934.63;;;5.00;nan
3082;BME280;1551;51.046;7.010;2023-02-10T02:43:09;102934.72;;;5.01;nan
3082;BME280;1551;51.046;7.010;2023-02-10T02:49:24;102937.16;;;5.00;nan
3082;BME280;1551;51.046;7.010;2023-02-10T02:52:29;102940.00;;;5.06;nan
3082;BME280;1551;51.046;7.010;2023-02-10T03:01:38;102939.13;;;4.88;nan
3082;BME280;1551;51.046;7.010;2023-02-10T03:04:32;102938.16;;;4.85;nan
3082;BME280;1551;51.046;7.010;2023-02-10T03:07:23;102945.13;;;4.90;nan
3082;BME280;1551;51.046;7.010;2023-02-10T03:10:12;102951.00;;;4.88;nan
3082;BME280;1551;51.046;7.010;2023-02-10T03:13:01;102918.22;;;4.75;nan
3082;BME280;1551;51.046;7.010;2023-02-10T03:15:50;102952.97;;;4.94;nan
3082;BME280;1551;51.046;7.010;2023-02-10T03:18:39;102955.41;;;4.93;nan
3082;BME280;1551;51.046;7.010;2023-02-10T03:21:28;102951.00;;;4.88;nan
3082;BME280;1551;51.046;7.010;2023-02-10T03:24:17;102956.13;;;4.90;nan
3082;BME280;1551;51.046;7.010;2023-02-10T03:27:06;102956.38;;;4.95;nan
3082;BME280;1551;51.046;7.010;2023-02-10T03:29:55;102958.16;;;4.97;nan
3082;BME280;1551;51.046;7.010;2023-02-10T03:32:44;102954.63;;;4.94;nan
3082;BME280;1551;51.046;7.010;2023-02-10T03:35:36;102951.31;;;4.95;nan
3082;BME280;1551;51.046;7.010;2023-02-10T03:38:26;102953.72;;;4.75;nan
3082;BME280;1551;51.046;7.010;2023-02-10T03:41:16;102950.81;;;4.68;nan
3082;BME280;1551;51.046;7.010;2023-02-10T03:44:05;102938.00;;;4.49;nan
3082;BME280;1551;51.046;7.010;2023-02-10T03:46:54;102935.63;;;4.52;nan
3082;BME280;1551;51.046;7.010;2023-02-10T03:49:43;102915.81;;;4.45;nan
3082;BME280;1551;51.046;7.010;2023-02-10T03:52:32;102921.84;;;4.31;nan
3082;BME280;1551;51.046;7.010;2023-02-10T03:55:21;102922.41;;;4.25;nan
3082;BME280;1551;51.046;7.010;2023-02-10T03:58:10;102909.72;;;4.25;nan
3082;BME280;1551;51.046;7.010;2023-02-10T04:00:59;102902.72;;;4.20;nan
3082;BME280;1551;51.046;7.010;2023-02-10T04:03:48;102895.66;;;4.14;nan
3082;BME280;1551;51.046;7.010;2023-02-10T04:06:38;102881.56;;;4.19;nan
3082;BME280;1551;51.046;7.010;2023-02-10T04:09:26;102898.34;;;4.17;nan
3082;BME280;1551;51.046;7.010;2023-02-10T04:12:16;102902.38;;;4.13;nan
3082;BME280;1551;51.046;7.010;2023-02-10T04:15:06;102913.16;;;4.09;nan
3082;BME280;1551;51.046;7.010;2023-02-10T04:17:56;102923.94;;;4.05;nan
3082;BME280;1551;51.046;7.010;2023-02-10T04:20:50;102921.59;;;3.94;nan
3082;BME280;1551;51.046;7.010;2023-02-10T04:23:39;102922.56;;;3.80;nan
3082;BME280;1551;51.046;7.010;2023-02-10T04:26:28;102930.44;;;3.70;nan
3082;BME280;1551;51.046;7.010;2023-02-10T04:29:17;102923.63;;;3.69;nan
3082;BME280;1551;51.046;7.010;2023-02-10T04:32:07;102930.66;;;3.58;nan
3082;BME280;1551;51.046;7.010;2023-02-10T04:34:56;102930.94;;;3.48;nan
3082;BME280;1551;51.046;7.010;2023-02-10T04:37:45;102940.19;;;3.47;nan
3082;BME280;1551;51.046;7.010;2023-02-10T04:40:34;102940.13;;;3.46;nan
3082;BME280;1551;51.046;7.010;2023-02-10T04:43:23;102942.66;;;3.46;nan
3082;BME280;1551;51.046;7.010;2023-02-10T04:46:12;102939.88;;;3.41;nan
3082;BME280;1551;51.046;7.010;2023-02-10T04:49:01;102938.22;;;3.42;nan
3082;BME280;1551;51.046;7.010;2023-02-10T04:51:50;102943.28;;;3.27;nan
3082;BME280;1551;51.046;7.010;2023-02-10T04:54:39;102936.59;;;3.13;nan
3082;BME280;1551;51.046;7.010;2023-02-10T04:57:28;102951.06;;;3.16;nan
3082;BME280;1551;51.046;7.010;2023-02-10T05:00:17;102950.63;;;3.08;nan
3082;BME280;1551;51.046;7.010;2023-02-10T05:03:06;102950.38;;;3.04;nan
3082;BME280;1551;51.046;7.010;2023-02-10T05:05:55;102967.13;;;3.02;nan
3082;BME280;1551;51.046;7.010;2023-02-10T05:08:45;102961.63;;;2.94;nan
3082;BME280;1551;51.046;7.010;2023-02-10T05:11:34;102962.00;;;2.86;nan
3082;BME280;1551;51.046;7.010;2023-02-10T05:14:23;102963.81;;;2.88;nan
3082;BME280;1551;51.046;7.010;2023-02-10T05:17:13;102952.91;;;2.89;nan
3082;BME280;1551;51.046;7.010;2023-02-10T05:20:03;102946.44;;;2.79;nan
3082;BME280;1551;51.046;7.010;2023-02-10T05:22:52;102952.38;;;2.65;nan
3082;BME280;1551;51.046;7.010;2023-02-10T05:25:41;102959.88;;;2.64;nan
3082;BME280;1551;51.046;7.010;2023-02-10T05:28:30;102959.94;;;2.65;nan
3082;BME280;1551;51.046;7.010;2023-02-10T05:31:19;102966.06;;;2.69;nan
3082;BME280;1551;51.046;7.010;2023-02-10T05:34:09;102958.31;;;2.66;nan
3082;BME280;1551;51.046;7.010;2023-02-10T05:36:57;102966.13;;;2.56;nan
3082;BME280;1551;51.046;7.010;2023-02-10T05:39:46;102963.16;;;2.48;nan
3082;BME280;1551;51.046;7.010;2023-02-10T05:42:35;102959.50;;;2.43;nan
3082;BME280;1551;51.046;7.010;2023-02-10T05:45:25;102963.84;;;2.46;nan
3082;BME280;1551;51.046;7.010;2023-02-10T05:48:14;102959.38;;;2.42;nan
3082;BME280;1551;51.046;7.010;2023-02-10T05:51:03;102970.28;;;2.41;nan
3082;BME280;1551;51.046;7.010;2023-02-10T05:53:52;102971.25;;;2.43;nan
3082;BME280;1551;51.046;7.010;2023-02-10T05:56:42;102969.34;;;2.39;nan
3082;BME280;1551;51.046;7.010;2023-02-10T05:59:31;102973.41;;;2.37;nan
3082;BME280;1551;51.046;7.010;2023-02-10T06:02:20;102970.72;;;2.34;nan
3082;BME280;1551;51.046;7.010;2023-02-10T06:05:10;102972.97;;;2.29;nan
3082;BME280;1551;51.046;7.010;2023-02-10T06:07:58;102967.97;;;2.31;nan
3082;BME280;1551;51.046;7.010;2023-02-10T06:10:48;102964.16;;;2.23;nan
3082;BME280;1551;51.046;7.010;2023-02-10T06:13:37;102958.63;;;2.15;nan
3082;BME280;1551;51.046;7.010;2023-02-10T06:16:26;102960.00;;;2.10;nan
3082;BME280;1551;51.046;7.010;2023-02-10T06:19:15;102966.28;;;2.17;nan
3082;BME280;1551;51.046;7.010;2023-02-10T06:22:06;102973.25;;;2.21;nan
3082;BME280;1551;51.046;7.010;2023-02-10T06:24:55;102978.31;;;2.21;nan
3082;BME280;1551;51.046;7.010;2023-02-10T06:27:44;102978.44;;;2.22;nan
3082;BME280;1551;51.046;7.010;2023-02-10T06:30:33;102988.81;;;2.14;nan
3082;BME280;1551;51.046;7.010;2023-02-10T06:33:22;102997.81;;;1.95;nan
3082;BME280;1551;51.046;7.010;2023-02-10T06:36:11;102989.06;;;1.90;nan
3082;BME280;1551;51.046;7.010;2023-02-10T06:39:00;102998.00;;;1.98;nan
3082;BME280;1551;51.046;7.010;2023-02-10T06:41:49;103001.00;;;2.06;nan
3082;BME280;1551;51.046;7.010;2023-02-10T06:44:38;103001.28;;;2.11;nan
3082;BME280;1551;51.046;7.010;2023-02-10T06:47:27;103010.59;;;2.12;nan
3082;BME280;1551;51.046;7.010;2023-02-10T06:50:16;103009.63;;;2.09;nan
3082;BME280;1551;51.046;7.010;2023-02-10T06:53:06;103015.66;;;2.12;nan
3082;BME280;1551;51.046;7.010;2023-02-10T06:55:56;103017.47;;;2.27;nan
3082;BME280;1551;51.046;7.010;2023-02-10T06:58:46;103021.44;;;2.37;nan
3082;BME280;1551;51.046;7.010;2023-02-10T07:01:35;103029.69;;;2.34;nan
3082;BME280;1551;51.046;7.010;2023-02-10T07:04:24;103031.44;;;2.35;nan
3082;BME280;1551;51.046;7.010;2023-02-10T07:07:13;103034.50;;;2.44;nan
3082;BME280;1551;51.046;7.010;2023-02-10T07:10:02;103038.56;;;2.55;nan
3082;BME280;1551;51.046;7.010;2023-02-10T07:12:52;103037.75;;;2.69;nan
3082;BME280;1551;51.046;7.010;2023-02-10T07:15:41;103046.56;;;2.76;nan
3082;BME280;1551;51.046;7.010;2023-02-10T07:18:30;103046.44;;;2.74;nan
3082;BME280;1551;51.046;7.010;2023-02-10T07:21:19;103039.53;;;2.72;nan
3082;BME280;1551;51.046;7.010;2023-02-10T07:24:09;103033.22;;;2.78;nan
3082;BME280;1551;51.046;7.010;2023-02-10T07:26:58;103019.25;;;2.70;nan
3082;BME280;1551;51.046;7.010;2023-02-10T07:29:48;103029.31;;;2.84;nan
3082;BME280;1551;51.046;7.010;2023-02-10T07:32:37;103031.31;;;2.89;nan
3082;BME280;1551;51.046;7.010;2023-02-10T07:35:27;103040.31;;;2.99;nan
3082;BME280;1551;51.046;7.010;2023-02-10T07:38:15;103036.56;;;3.07;nan
3082;BME280;1551;51.046;7.010;2023-02-10T07:41:06;103036.91;;;3.13;nan
3082;BME280;1551;51.046;7.010;2023-02-10T07:43:55;103029.50;;;3.16;nan
3082;BME280;1551;51.046;7.010;2023-02-10T07:46:44;103027.94;;;3.18;nan
3082;BME280;1551;51.046;7.010;2023-02-10T07:49:33;103028.88;;;3.20;nan
3082;BME280;1551;51.046;7.010;2023-02-10T07:52:23;103029.41;;;3.29;nan
3082;BME280;1551;51.046;7.010;2023-02-10T07:55:12;103033.78;;;3.31;nan
3082;BME280;1551;51.046;7.010;2023-02-10T07:58:01;103037.25;;;3.33;nan
3082;BME280;1551;51.046;7.010;2023-02-10T08:00:50;103035.78;;;3.37;nan
3082;BME280;1551;51.046;7.010;2023-02-10T08:03:39;103034.28;;;3.40;nan
3082;BME280;1551;51.046;7.010;2023-02-10T08:06:28;103035.50;;;3.47;nan
3082;BME280;1551;51.046;7.010;2023-02-10T08:09:17;103032.53;;;3.54;nan
3082;BME280;1551;51.046;7.010;2023-02-10T08:12:06;103033.84;;;3.62;nan
3082;BME280;1551;51.046;7.010;2023-02-10T08:14:55;103049.09;;;3.64;nan
3082;BME280;1551;51.046;7.010;2023-02-10T08:17:44;103048.41;;;3.66;nan
3082;BME280;1551;51.046;7.010;2023-02-10T08:20:33;103043.59;;;3.71;nan
3082;BME280;1551;51.046;7.010;2023-02-10T08:23:22;103037.47;;;3.82;nan
3082;BME280;1551;51.046;7.010;2023-02-10T08:26:12;103033.38;;;3.84;nan
3082;BME280;1551;51.046;7.010;2023-02-10T08:29:01;103033.88;;;3.93;nan
3082;BME280;1551;51.046;7.010;2023-02-10T08:31:51;103035.13;;;4.01;nan
3082;BME280;1551;51.046;7.010;2023-02-10T08:34:41;103048.41;;;4.11;nan
3082;BME280;1551;51.046;7.010;2023-02-10T08:37:30;103055.78;;;4.23;nan
3082;BME280;1551;51.046;7.010;2023-02-10T08:40:19;103042.16;;;4.21;nan
3082;BME280;1551;51.046;7.010;2023-02-10T08:43:07;103062.84;;;4.29;nan
3082;BME280;1551;51.046;7.010;2023-02-10T08:45:58;103063.75;;;4.45;nan
3082;BME280;1551;51.046;7.010;2023-02-10T08:48:47;103061.47;;;4.50;nan
3082;BME280;1551;51.046;7.010;2023-02-10T08:51:36;103060.41;;;4.46;nan
3082;BME280;1551;51.046;7.010;2023-02-10T08:54:27;103067.47;;;4.52;nan
3082;BME280;1551;51.046;7.010;2023-02-10T08:57:16;103063.59;;;4.58;nan
3082;BME280;1551;51.046;7.010;2023-02-10T09:00:06;103076.03;;;4.70;nan
3082;BME280;1551;51.046;7.010;2023-02-10T09:02:56;103070.56;;;4.78;nan
3082;BME280;1551;51.046;7.010;2023-02-10T09:05:45;103068.59;;;4.89;nan
3082;BME280;1551;51.046;7.010;2023-02-10T09:08:34;103068.09;;;4.96;nan
3082;BME280;1551;51.046;7.010;2023-02-10T09:11:23;103064.91;;;5.00;nan
3082;BME280;1551;51.046;7.010;2023-02-10T09:14:13;103070.06;;;5.18;nan
3082;BME280;1551;51.046;7.010;2023-02-10T09:17:02;103068.69;;;5.24;nan
3082;BME280;1551;51.046;7.010;2023-02-10T09:19:51;103068.25;;;5.33;nan
3082;BME280;1551;51.046;7.010;2023-02-10T09:22:40;103062.97;;;5.28;nan
3082;BME280;1551;51.046;7.010;2023-02-10T09:25:29;103067.31;;;5.31;nan
3082;BME280;1551;51.046;7.010;2023-02-10T09:28:18;103077.19;;;5.25;nan
3082;BME280;1551;51.046;7.010;2023-02-10T09:31:08;103078.03;;;5.41;nan
3082;BME280;1551;51.046;7.010;2023-02-10T09:33:58;103080.06;;;5.48;nan
3082;BME280;1551;51.046;7.010;2023-02-10T09:36:47;103077.59;;;5.50;nan
3082;BME280;1551;51.046;7.010;2023-02-10T09:39:36;103081.94;;;5.52;nan
3082;BME280;1551;51.046;7.010;2023-02-10T09:42:51;103079.13;;;5.64;nan
3082;BME280;1551;51.046;7.010;2023-02-10T09:45:42;103062.28;;;5.48;nan
3082;BME280;1551;51.046;7.010;2023-02-10T09:54:46;103080.56;;;5.59;nan
3082;BME280;1551;51.046;7.010;2023-02-10T09:57:39;103087.41;;;5.78;nan
3082;BME280;1551;51.046;7.010;2023-02-10T10:00:31;103088.59;;;6.02;nan
3082;BME280;1551;51.046;7.010;2023-02-10T10:03:27;103100.53;;;6.40;nan
3082;BME280;1551;51.046;7.010;2023-02-10T10:06:28;103099.34;;;8.32;nan
3082;BME280;1551;51.046;7.010;2023-02-10T10:09:30;103100.53;;;9.61;nan
3082;BME280;1551;51.046;7.010;2023-02-10T10:12:21;103107.94;;;10.62;nan
3082;BME280;1551;51.046;7.010;2023-02-10T10:15:17;103112.97;;;11.20;nan
3082;BME280;1551;51.046;7.010;2023-02-10T10:18:13;103110.00;;;11.38;nan
3082;BME280;1551;51.046;7.010;2023-02-10T10:21:26;103116.25;;;11.82;nan
3082;BME280;1551;51.046;7.010;2023-02-10T10:24:33;103124.22;;;12.31;nan
3082;BME280;1551;51.046;7.010;2023-02-10T10:27:31;103130.72;;;12.96;nan
3082;BME280;1551;51.046;7.010;2023-02-10T10:33:40;103113.63;;;13.98;nan
3082;BME280;1551;51.046;7.010;2023-02-10T10:36:38;103113.66;;;14.60;nan
3082;BME280;1551;51.046;7.010;2023-02-10T10:39:35;103121.75;;;14.90;nan
3082;BME280;1551;51.046;7.010;2023-02-10T10:42:39;103115.84;;;15.03;nan
3082;BME280;1551;51.046;7.010;2023-02-10T10:48:23;103118.47;;;16.02;nan
3082;BME280;1551;51.046;7.010;2023-02-10T10:51:16;103114.25;;;16.16;nan
3082;BME280;1551;51.046;7.010;2023-02-10T10:54:06;103111.63;;;16.13;nan
3082;BME280;1551;51.046;7.010;2023-02-10T10:57:05;103106.75;;;16.68;nan
3082;BME280;1551;51.046;7.010;2023-02-10T11:00:13;103115.47;;;17.00;nan
3082;BME280;1551;51.046;7.010;2023-02-10T11:03:04;103107.69;;;17.04;nan
3082;BME280;1551;51.046;7.010;2023-02-10T11:06:10;103097.38;;;16.97;nan
3082;BME280;1551;51.046;7.010;2023-02-10T11:09:02;103098.19;;;16.76;nan
3082;BME280;1551;51.046;7.010;2023-02-10T11:11:53;103078.41;;;17.08;nan
3082;BME280;1551;51.046;7.010;2023-02-10T11:14:45;103080.16;;;17.37;nan
3082;BME280;1551;51.046;7.010;2023-02-10T11:17:36;103093.09;;;17.91;nan
3082;BME280;1551;51.046;7.010;2023-02-10T11:20:32;103088.78;;;17.70;nan
3082;BME280;1551;51.046;7.010;2023-02-10T11:23:22;103091.97;;;18.65;nan
3082;BME280;1551;51.046;7.010;2023-02-10T11:26:21;103079.63;;;19.06;nan
3082;BME280;1551;51.046;7.010;2023-02-10T11:29:10;103072.22;;;19.65;nan
3082;BME280;1551;51.046;7.010;2023-02-10T11:32:00;103068.47;;;19.95;nan
3082;BME280;1551;51.046;7.010;2023-02-10T11:34:52;103068.38;;;19.05;nan
3082;BME280;1551;51.046;7.010;2023-02-10T11:37:43;103059.09;;;16.11;nan
3082;BME280;1551;51.046;7.010;2023-02-10T11:40:59;103046.09;;;15.98;nan
3082;BME280;1551;51.046;7.010;2023-02-10T11:43:49;103043.06;;;15.36;nan
3082;BME280;1551;51.046;7.010;2023-02-10T11:46:38;103049.75;;;16.42;nan
3082;BME280;1551;51.046;7.010;2023-02-10T11:49:29;103045.56;;;17.84;nan
3082;BME280;1551;51.046;7.010;2023-02-10T11:52:24;103048.19;;;16.91;nan
3082;BME280;1551;51.046;7.010;2023-02-10T11:55:15;103042.19;;;17.21;nan
3082;BME280;1551;51.046;7.010;2023-02-10T11:58:20;103041.28;;;17.14;nan
3082;BME280;1551;51.046;7.010;2023-02-10T12:04:45;103030.34;;;15.55;nan
3082;BME280;1551;51.046;7.010;2023-02-10T12:10:50;103025.69;;;14.31;nan
3082;BME280;1551;51.046;7.010;2023-02-10T12:14:00;103032.97;;;13.41;nan
3082;BME280;1551;51.046;7.010;2023-02-10T12:35:55;102993.53;;;12.03;nan
3082;BME280;1551;51.046;7.010;2023-02-10T12:51:18;102974.28;;;15.38;nan
3082;BME280;1551;51.046;7.010;2023-02-10T12:54:20;102977.34;;;16.43;nan
3082;BME280;1551;51.046;7.010;2023-02-10T12:57:38;102975.69;;;17.48;nan
3082;BME280;1551;51.046;7.010;2023-02-10T13:00:30;102973.72;;;18.20;nan
3082;BME280;1551;51.046;7.010;2023-02-10T13:03:28;102976.88;;;18.73;nan
3082;BME280;1551;51.046;7.010;2023-02-10T13:06:32;102969.81;;;18.95;nan
3082;BME280;1551;51.046;7.010;2023-02-10T13:09:28;102967.59;;;19.48;nan
3082;BME280;1551;51.046;7.010;2023-02-10T13:12:33;102961.53;;;18.40;nan
3082;BME280;1551;51.046;7.010;2023-02-10T13:15:28;102954.19;;;16.66;nan
3082;BME280;1551;51.046;7.010;2023-02-10T13:18:21;102954.69;;;15.67;nan
3082;BME280;1551;51.046;7.010;2023-02-10T13:21:19;102942.66;;;14.59;nan
3082;BME280;1551;51.046;7.010;2023-02-10T13:24:24;102947.19;;;14.05;nan
3082;BME280;1551;51.046;7.010;2023-02-10T13:33:45;102933.16;;;14.54;nan
3082;BME280;1551;51.046;7.010;2023-02-10T13:36:40;102931.75;;;14.86;nan
3082;BME280;1551;51.046;7.010;2023-02-10T13:39:30;102931.78;;;14.08;nan
3082;BME280;1551;51.046;7.010;2023-02-10T13:42:25;102933.06;;;13.71;nan
3082;BME280;1551;51.046;7.010;2023-02-10T13:45:19;102927.75;;;13.60;nan
3082;BME280;1551;51.046;7.010;2023-02-10T13:48:29;102933.34;;;13.92;nan
3082;BME280;1551;51.046;7.010;2023-02-10T13:51:31;102931.75;;;13.39;nan
3082;BME280;1551;51.046;7.010;2023-02-10T13:54:27;102928.31;;;12.86;nan
3082;BME280;1551;51.046;7.010;2023-02-10T13:57:36;102934.94;;;13.23;nan
3082;BME280;1551;51.046;7.010;2023-02-10T14:00:49;102927.31;;;13.90;nan
3082;BME280;1551;51.046;7.010;2023-02-10T14:03:38;102926.75;;;13.49;nan
3082;BME280;1551;51.046;7.010;2023-02-10T14:06:33;102920.19;;;14.41;nan
3082;BME280;1551;51.046;7.010;2023-02-10T14:12:26;102924.72;;;16.11;nan
3082;BME280;1551;51.046;7.010;2023-02-10T14:15:42;102917.94;;;17.07;nan
3082;BME280;1551;51.046;7.010;2023-02-10T14:18:36;102924.72;;;16.07;nan
3082;BME280;1551;51.046;7.010;2023-02-10T14:21:25;102916.50;;;15.16;nan
3082;BME280;1551;51.046;7.010;2023-02-10T14:24:18;102917.66;;;15.66;nan
3082;BME280;1551;51.046;7.010;2023-02-10T14:27:13;102915.91;;;15.58;nan
3082;BME280;1551;51.046;7.010;2023-02-10T14:30:15;102916.41;;;15.02;nan
3082;BME280;1551;51.046;7.010;2023-02-10T14:33:06;102901.13;;;15.36;nan
3082;BME280;1551;51.046;7.010;2023-02-10T14:36:16;102907.41;;;15.81;nan
3082;BME280;1551;51.046;7.010;2023-02-10T14:39:14;102902.38;;;16.33;nan
3082;BME280;1551;51.046;7.010;2023-02-10T14:42:04;102905.78;;;16.05;nan
3082;BME280;1551;51.046;7.010;2023-02-10T14:44:57;102903.28;;;14.74;nan
3082;BME280;1551;51.046;7.010;2023-02-10T14:47:48;102892.03;;;14.63;nan
3082;BME280;1551;51.046;7.010;2023-02-10T14:50:38;102913.97;;;15.27;nan
3082;BME280;1551;51.046;7.010;2023-02-10T14:53:28;102904.22;;;14.86;nan
3082;BME280;1551;51.046;7.010;2023-02-10T14:56:20;102906.09;;;15.02;nan
3082;BME280;1551;51.046;7.010;2023-02-10T14:59:37;102906.59;;;14.61;nan
3082;BME280;1551;51.046;7.010;2023-02-10T15:02:29;102901.84;;;15.09;nan
3082;BME280;1551;51.046;7.010;2023-02-10T15:05:19;102910.53;;;14.27;nan
3082;BME280;1551;51.046;7.010;2023-02-10T15:08:16;102898.56;;;13.58;nan
3082;BME280;1551;51.046;7.010;2023-02-10T15:11:11;102903.66;;;13.54;nan
3082;BME280;1551;51.046;7.010;2023-02-10T15:14:02;102900.25;;;13.55;nan
3082;BME280;1551;51.046;7.010;2023-02-10T15:16:51;102889.97;;;13.55;nan
3082;BME280;1551;51.046;7.010;2023-02-10T15:19:54;102892.00;;;13.80;nan
3082;BME280;1551;51.046;7.010;2023-02-10T15:22:49;102885.03;;;13.73;nan
3082;BME280;1551;51.046;7.010;2023-02-10T15:25:39;102885.41;;;13.36;nan
3082;BME280;1551;51.046;7.010;2023-02-10T15:28:29;102894.41;;;12.56;nan
3082;BME280;1551;51.046;7.010;2023-02-10T15:31:26;102894.38;;;12.08;nan
3082;BME280;1551;51.046;7.010;2023-02-10T15:34:23;102897.19;;;11.77;nan
3082;BME280;1551;51.046;7.010;2023-02-10T15:37:21;102887.53;;;11.28;nan
3082;BME280;1551;51.046;7.010;2023-02-10T15:40:19;102901.31;;;10.95;nan
3082;BME280;1551;51.046;7.010;2023-02-10T15:43:26;102890.75;;;10.82;nan
3082;BME280;1551;51.046;7.010;2023-02-10T15:46:18;102891.28;;;10.69;nan
3082;BME280;1551;51.046;7.010;2023-02-10T15:49:09;102900.38;;;10.58;nan
3082;BME280;1551;51.046;7.010;2023-02-10T15:51:59;102891.47;;;10.44;nan
3082;BME280;1551;51.046;7.010;2023-02-10T15:54:49;102904.16;;;10.39;nan
3082;BME280;1551;51.046;7.010;2023-02-10T15:57:40;102896.66;;;10.45;nan
3082;BME280;1551;51.046;7.010;2023-02-10T16:00:35;102900.13;;;10.49;nan
3082;BME280;1551;51.046;7.010;2023-02-10T16:03:25;102891.53;;;10.45;nan
3082;BME280;1551;51.046;7.010;2023-02-10T16:06:16;102891.53;;;10.45;nan
3082;BME280;1551;51.046;7.010;2023-02-10T16:09:06;102894.91;;;10.44;nan
3082;BME280;1551;51.046;7.010;2023-02-10T16:11:55;102887.19;;;10.43;nan
3082;BME280;1551;51.046;7.010;2023-02-10T16:14:45;102887.25;;;10.46;nan
3082;BME280;1551;51.046;7.010;2023-02-10T16:17:38;102876.53;;;10.27;nan
3082;BME280;1551;51.046;7.010;2023-02-10T16:20:30;102868.75;;;10.23;nan
3082;BME280;1551;51.046;7.010;2023-02-10T16:23:19;102865.06;;;10.13;nan
3082;BME280;1551;51.046;7.010;2023-02-10T16:26:20;102865.50;;;9.99;nan
3082;BME280;1551;51.046;7.010;2023-02-10T16:29:20;102858.09;;;9.78;nan
3082;BME280;1551;51.046;7.010;2023-02-10T16:32:09;102861.44;;;9.76;nan
3082;BME280;1551;51.046;7.010;2023-02-10T16:34:59;102865.53;;;9.69;nan
3082;BME280;1551;51.046;7.010;2023-02-10T16:37:48;102865.38;;;9.64;nan
3082;BME280;1551;51.046;7.010;2023-02-10T16:40:38;102871.28;;;9.62;nan
3082;BME280;1551;51.046;7.010;2023-02-10T16:43:28;102870.78;;;9.45;nan
3082;BME280;1551;51.046;7.010;2023-02-10T16:46:17;102876.69;;;9.43;nan
3082;BME280;1551;51.046;7.010;2023-02-10T16:49:11;102882.03;;;9.50;nan
3082;BME280;1551;51.046;7.010;2023-02-10T16:52:00;102880.31;;;9.49;nan
3082;BME280;1551;51.046;7.010;2023-02-10T16:54:49;102892.16;;;9.47;nan
3082;BME280;1551;51.046;7.010;2023-02-10T16:57:39;102890.22;;;9.40;nan
3082;BME280;1551;51.046;7.010;2023-02-10T17:00:28;102885.88;;;9.38;nan
3082;BME280;1551;51.046;7.010;2023-02-10T17:03:17;102885.88;;;9.38;nan
3082;BME280;1551;51.046;7.010;2023-02-10T17:06:07;102878.72;;;9.26;nan
3082;BME280;1551;51.046;7.010;2023-02-10T17:08:57;102885.97;;;9.13;nan
3082;BME280;1551;51.046;7.010;2023-02-10T17:11:47;102890.16;;;9.11;nan
3082;BME280;1551;51.046;7.010;2023-02-10T17:14:36;102890.91;;;9.07;nan
3082;BME280;1551;51.046;7.010;2023-02-10T17:17:25;102898.34;;;9.00;nan
3082;BME280;1551;51.046;7.010;2023-02-10T17:20:23;102888.97;;;8.99;nan